sensor_id;sensor_type;location;lat;lon;timestamp;P1;durP1;ratioP1;P2;durP2;ratioP2
7703;SDS011;3894;49.700;10.770;2024-01-30T00:01:15;11.25;;;3.85;;
7703;SDS011;3894;49.700;10.770;2024-01-30T00:03:41;14.00;;;4.38;;
7703;SDS011;3894;49.700;10.770;2024-01-30T00:06:07;15.35;;;4.80;;
7703;SDS011;3894;49.700;10.770;2024-01-30T00:08:33;11.23;;;3.92;;
7703;SDS011;3894;49.700;10.770;2024-01-30T00:10:59;10.95;;;4.55;;
7703;SDS011;3894;49.700;10.770;2024-01-30T00:13:26;12.20;;;3.47;;
7703;SDS011;3894;49.700;10.770;2024-01-30T00:15:52;10.13;;;4.15;;
7703;SDS011;3894;49.700;10.770;2024-01-30T00:18:17;10.40;;;3.88;;
7703;SDS011;3894;49.700;10.770;2024-01-30T00:20:43;9.93;;;3.40;;
7703;SDS011;3894;49.700;10.770;2024-01-30T00:23:09;10.68;;;3.70;;
7703;SDS011;3894;49.700;10.770;2024-01-30T00:25:34;10.43;;;3.72;;
7703;SDS011;3894;49.700;10.770;2024-01-30T00:28:00;11.00;;;4.13;;
7703;SDS011;3894;49.700;10.770;2024-01-30T00:30:26;13.13;;;3.67;;
7703;SDS011;3894;49.700;10.770;2024-01-30T00:32:51;10.27;;;3.40;;
7703;SDS011;3894;49.700;10.770;2024-01-30T00:35:17;10.50;;;3.47;;
7703;SDS011;3894;49.700;10.770;2024-01-30T00:37:42;10.82;;;3.47;;
7703;SDS011;3894;49.700;10.770;2024-01-30T00:40:08;7.90;;;2.92;;
7703;SDS011;3894;49.700;10.770;2024-01-30T00:42:40;9.07;;;3.30;;
7703;SDS011;3894;49.700;10.770;2024-01-30T00:45:13;8.63;;;3.33;;
7703;SDS011;3894;49.700;10.770;2024-01-30T00:47:39;9.55;;;3.75;;
7703;SDS011;3894;49.700;10.770;2024-01-30T00:50:05;9.68;;;3.25;;
7703;SDS011;3894;49.700;10.770;2024-01-30T00:52:30;11.98;;;3.63;;
7703;SDS011;3894;49.700;10.770;2024-01-30T00:54:58;8.80;;;3.22;;
7703;SDS011;3894;49.700;10.770;2024-01-30T00:57:24;12.15;;;3.40;;
7703;SDS011;3894;49.700;10.770;2024-01-30T00:59:49;10.52;;;3.78;;
7703;SDS011;3894;49.700;10.770;2024-01-30T01:02:15;10.90;;;3.80;;
7703;SDS011;3894;49.700;10.770;2024-01-30T01:04:42;8.98;;;3.60;;
7703;SDS011;3894;49.700;10.770;2024-01-30T01:07:08;13.27;;;4.20;;
7703;SDS011;3894;49.700;10.770;2024-01-30T01:09:33;11.05;;;4.38;;
7703;SDS011;3894;49.700;10.770;2024-01-30T01:11:59;8.80;;;3.80;;
7703;SDS011;3894;49.700;10.770;2024-01-30T01:14:24;10.43;;;3.25;;
7703;SDS011;3894;49.700;10.770;2024-01-30T01:16:50;7.28;;;3.30;;
7703;SDS011;3894;49.700;10.770;2024-01-30T01:19:16;14.32;;;3.55;;
7703;SDS011;3894;49.700;10.770;2024-01-30T01:21:41;9.68;;;3.40;;
7703;SDS011;3894;49.700;10.770;2024-01-30T01:24:08;12.20;;;3.97;;
7703;SDS011;3894;49.700;10.770;2024-01-30T01:26:33;10.98;;;4.18;;
7703;SDS011;3894;49.700;10.770;2024-01-30T01:28:59;8.90;;;3.88;;
7703;SDS011;3894;49.700;10.770;2024-01-30T01:31:25;10.02;;;3.97;;
7703;SDS011;3894;49.700;10.770;2024-01-30T01:33:54;10.35;;;3.47;;
7703;SDS011;3894;49.700;10.770;2024-01-30T01:36:20;8.55;;;3.58;;
7703;SDS011;3894;49.700;10.770;2024-01-30T01:38:45;10.60;;;3.85;;
7703;SDS011;3894;49.700;10.770;2024-01-30T01:41:11;9.10;;;3.63;;
7703;SDS011;3894;49.700;10.770;2024-01-30T01:43:36;13.23;;;3.97;;
7703;SDS011;3894;49.700;10.770;2024-01-30T01:46:04;7.90;;;3.05;;
7703;SDS011;3894;49.700;10.770;2024-01-30T01:48:30;9.90;;;3.78;;
7703;SDS011;3894;49.700;10.770;2024-01-30T01:50:56;9.05;;;4.10;;
7703;SDS011;3894;49.700;10.770;2024-01-30T01:53:22;10.05;;;3.00;;
7703;SDS011;3894;49.700;10.770;2024-01-30T01:55:48;10.68;;;3.53;;
7703;SDS011;3894;49.700;10.770;2024-01-30T01:58:14;9.95;;;3.50;;
7703;SDS011;3894;49.700;10.770;2024-01-30T02:00:39;10.35;;;3.28;;
7703;SDS011;3894;49.700;10.770;2024-01-30T02:03:06;9.10;;;3.53;;
7703;SDS011;3894;49.700;10.770;2024-01-30T02:05:35;9.43;;;3.47;;
7703;SDS011;3894;49.700;10.770;2024-01-30T02:08:01;9.07;;;3.53;;
7703;SDS011;3894;49.700;10.770;2024-01-30T02:10:28;10.43;;;3.53;;
7703;SDS011;3894;49.700;10.770;2024-01-30T02:12:53;12.15;;;3.88;;
7703;SDS011;3894;49.700;10.770;2024-01-30T02:15:19;11.32;;;4.03;;
7703;SDS011;3894;49.700;10.770;2024-01-30T02:17:45;8.90;;;3.80;;
7703;SDS011;3894;49.700;10.770;2024-01-30T02:20:12;11.50;;;4.20;;
7703;SDS011;3894;49.700;10.770;2024-01-30T02:22:38;9.48;;;3.15;;
7703;SDS011;3894;49.700;10.770;2024-01-30T02:25:05;9.65;;;3.47;;
7703;SDS011;3894;49.700;10.770;2024-01-30T02:27:31;8.38;;;3.38;;
7703;SDS011;3894;49.700;10.770;2024-01-30T02:29:56;12.85;;;4.05;;
7703;SDS011;3894;49.700;10.770;2024-01-30T02:32:22;13.15;;;4.20;;
7703;SDS011;3894;49.700;10.770;2024-01-30T02:34:47;9.85;;;3.53;;
7703;SDS011;3894;49.700;10.770;2024-01-30T02:37:13;9.35;;;3.70;;
7703;SDS011;3894;49.700;10.770;2024-01-30T02:39:38;9.88;;;3.42;;
7703;SDS011;3894;49.700;10.770;2024-01-30T02:42:04;9.45;;;3.65;;
7703;SDS011;3894;49.700;10.770;2024-01-30T02:44:30;9.13;;;3.63;;
7703;SDS011;3894;49.700;10.770;2024-01-30T02:46:55;8.18;;;3.30;;
7703;SDS011;3894;49.700;10.770;2024-01-30T02:49:21;8.23;;;3.88;;
7703;SDS011;3894;49.700;10.770;2024-01-30T02:51:47;10.55;;;3.38;;
7703;SDS011;3894;49.700;10.770;2024-01-30T02:54:13;8.98;;;3.42;;
7703;SDS011;3894;49.700;10.770;2024-01-30T02:56:38;10.95;;;3.58;;
7703;SDS011;3894;49.700;10.770;2024-01-30T02:59:06;12.05;;;4.03;;
7703;SDS011;3894;49.700;10.770;2024-01-30T03:01:31;11.23;;;3.67;;
7703;SDS011;3894;49.700;10.770;2024-01-30T03:03:57;8.85;;;3.30;;
7703;SDS011;3894;49.700;10.770;2024-01-30T03:06:22;11.40;;;4.00;;
7703;SDS011;3894;49.700;10.770;2024-01-30T03:08:48;8.57;;;3.30;;
7703;SDS011;3894;49.700;10.770;2024-01-30T03:11:13;8.18;;;3.33;;
7703;SDS011;3894;49.700;10.770;2024-01-30T03:13:39;10.43;;;3.30;;
7703;SDS011;3894;49.700;10.770;2024-01-30T03:16:05;10.02;;;3.60;;
7703;SDS011;3894;49.700;10.770;2024-01-30T03:18:31;8.57;;;3.42;;
7703;SDS011;3894;49.700;10.770;2024-01-30T03:20:56;12.40;;;3.83;;
7703;SDS011;3894;49.700;10.770;2024-01-30T03:23:22;9.20;;;4.20;;
7703;SDS011;3894;49.700;10.770;2024-01-30T03:25:47;9.27;;;4.13;;
7703;SDS011;3894;49.700;10.770;2024-01-30T03:28:13;9.55;;;2.97;;
7703;SDS011;3894;49.700;10.770;2024-01-30T03:30:39;9.77;;;3.90;;
7703;SDS011;3894;49.700;10.770;2024-01-30T03:33:04;9.32;;;3.40;;
7703;SDS011;3894;49.700;10.770;2024-01-30T03:35:30;13.48;;;4.20;;
7703;SDS011;3894;49.700;10.770;2024-01-30T03:37:56;11.43;;;3.50;;
7703;SDS011;3894;49.700;10.770;2024-01-30T03:40:21;10.88;;;4.15;;
7703;SDS011;3894;49.700;10.770;2024-01-30T03:42:47;9.85;;;4.25;;
7703;SDS011;3894;49.700;10.770;2024-01-30T03:45:12;14.23;;;3.67;;
7703;SDS011;3894;49.700;10.770;2024-01-30T03:47:38;8.32;;;4.15;;
7703;SDS011;3894;49.700;10.770;2024-01-30T03:50:03;11.45;;;3.50;;
7703;SDS011;3894;49.700;10.770;2024-01-30T03:52:29;8.55;;;3.17;;
7703;SDS011;3894;49.700;10.770;2024-01-30T03:54:55;9.68;;;4.07;;
7703;SDS011;3894;49.700;10.770;2024-01-30T03:57:20;11.45;;;3.90;;
7703;SDS011;3894;49.700;10.770;2024-01-30T03:59:47;11.63;;;3.72;;
7703;SDS011;3894;49.700;10.770;2024-01-30T04:02:12;12.18;;;3.95;;
7703;SDS011;3894;49.700;10.770;2024-01-30T04:04:38;10.27;;;3.45;;
7703;SDS011;3894;49.700;10.770;2024-01-30T04:07:03;12.80;;;4.18;;
7703;SDS011;3894;49.700;10.770;2024-01-30T04:09:29;9.13;;;4.85;;
7703;SDS011;3894;49.700;10.770;2024-01-30T04:11:54;8.73;;;3.58;;
7703;SDS011;3894;49.700;10.770;2024-01-30T04:14:20;8.80;;;3.75;;
7703;SDS011;3894;49.700;10.770;2024-01-30T04:16:46;10.02;;;3.78;;
7703;SDS011;3894;49.700;10.770;2024-01-30T04:19:11;10.45;;;3.83;;
7703;SDS011;3894;49.700;10.770;2024-01-30T04:21:37;10.77;;;4.03;;
7703;SDS011;3894;49.700;10.770;2024-01-30T04:24:02;10.35;;;3.55;;
7703;SDS011;3894;49.700;10.770;2024-01-30T04:26:28;10.82;;;3.92;;
7703;SDS011;3894;49.700;10.770;2024-01-30T04:28:53;9.77;;;3.53;;
7703;SDS011;3894;49.700;10.770;2024-01-30T04:31:19;9.50;;;3.95;;
7703;SDS011;3894;49.700;10.770;2024-01-30T04:33:44;9.52;;;3.58;;
7703;SDS011;3894;49.700;10.770;2024-01-30T04:36:10;9.70;;;3.50;;
7703;SDS011;3894;49.700;10.770;2024-01-30T04:38:36;9.75;;;3.33;;
7703;SDS011;3894;49.700;10.770;2024-01-30T04:41:02;9.82;;;3.75;;
7703;SDS011;3894;49.700;10.770;2024-01-30T04:43:28;13.43;;;3.83;;
7703;SDS011;3894;49.700;10.770;2024-01-30T04:45:53;9.07;;;3.05;;
7703;SDS011;3894;49.700;10.770;2024-01-30T04:48:19;9.82;;;3.92;;
7703;SDS011;3894;49.700;10.770;2024-01-30T04:50:44;9.88;;;3.45;;
7703;SDS011;3894;49.700;10.770;2024-01-30T04:53:10;9.23;;;3.60;;
7703;SDS011;3894;49.700;10.770;2024-01-30T04:55:35;8.73;;;3.50;;
7703;SDS011;3894;49.700;10.770;2024-01-30T04:58:01;9.13;;;3.70;;
7703;SDS011;3894;49.700;10.770;2024-01-30T05:00:27;10.38;;;3.30;;
7703;SDS011;3894;49.700;10.770;2024-01-30T05:02:52;9.68;;;4.00;;
7703;SDS011;3894;49.700;10.770;2024-01-30T05:05:20;9.90;;;3.53;;
7703;SDS011;3894;49.700;10.770;2024-01-30T05:07:46;9.02;;;3.72;;
7703;SDS011;3894;49.700;10.770;2024-01-30T05:10:12;10.63;;;3.50;;
7703;SDS011;3894;49.700;10.770;2024-01-30T05:12:38;8.50;;;3.58;;
7703;SDS011;3894;49.700;10.770;2024-01-30T05:15:04;8.82;;;3.60;;
7703;SDS011;3894;49.700;10.770;2024-01-30T05:17:30;9.20;;;3.30;;
7703;SDS011;3894;49.700;10.770;2024-01-30T05:19:55;9.15;;;3.47;;
7703;SDS011;3894;49.700;10.770;2024-01-30T05:22:21;11.27;;;4.47;;
7703;SDS011;3894;49.700;10.770;2024-01-30T05:24:46;11.45;;;4.53;;
7703;SDS011;3894;49.700;10.770;2024-01-30T05:27:12;9.82;;;4.45;;
7703;SDS011;3894;49.700;10.770;2024-01-30T05:32:06;9.45;;;3.88;;
7703;SDS011;3894;49.700;10.770;2024-01-30T05:34:32;9.52;;;3.28;;
7703;SDS011;3894;49.700;10.770;2024-01-30T05:36:57;9.52;;;3.70;;
7703;SDS011;3894;49.700;10.770;2024-01-30T05:39:23;9.15;;;4.50;;
7703;SDS011;3894;49.700;10.770;2024-01-30T05:41:49;11.65;;;4.40;;
7703;SDS011;3894;49.700;10.770;2024-01-30T05:44:14;9.15;;;3.47;;
7703;SDS011;3894;49.700;10.770;2024-01-30T05:46:40;11.90;;;3.83;;
7703;SDS011;3894;49.700;10.770;2024-01-30T05:49:05;10.73;;;3.45;;
7703;SDS011;3894;49.700;10.770;2024-01-30T05:51:31;10.43;;;4.07;;
7703;SDS011;3894;49.700;10.770;2024-01-30T05:53:56;12.80;;;4.10;;
7703;SDS011;3894;49.700;10.770;2024-01-30T05:56:22;10.35;;;4.00;;
7703;SDS011;3894;49.700;10.770;2024-01-30T05:58:48;9.88;;;4.28;;
7703;SDS011;3894;49.700;10.770;2024-01-30T06:01:15;8.60;;;4.38;;
7703;SDS011;3894;49.700;10.770;2024-01-30T06:03:41;12.82;;;4.15;;
7703;SDS011;3894;49.700;10.770;2024-01-30T06:06:08;10.27;;;4.68;;
7703;SDS011;3894;49.700;10.770;2024-01-30T06:08:34;11.77;;;4.38;;
7703;SDS011;3894;49.700;10.770;2024-01-30T06:10:59;9.60;;;3.95;;
7703;SDS011;3894;49.700;10.770;2024-01-30T06:13:25;10.95;;;4.15;;
7703;SDS011;3894;49.700;10.770;2024-01-30T06:15:51;8.70;;;4.10;;
7703;SDS011;3894;49.700;10.770;2024-01-30T06:18:17;11.93;;;5.25;;
7703;SDS011;3894;49.700;10.770;2024-01-30T06:20:43;16.65;;;5.40;;
7703;SDS011;3894;49.700;10.770;2024-01-30T06:23:08;16.77;;;6.93;;
7703;SDS011;3894;49.700;10.770;2024-01-30T06:25:34;13.32;;;5.57;;
7703;SDS011;3894;49.700;10.770;2024-01-30T06:27:59;10.23;;;4.00;;
7703;SDS011;3894;49.700;10.770;2024-01-30T06:30:25;18.02;;;6.07;;
7703;SDS011;3894;49.700;10.770;2024-01-30T06:32:50;11.15;;;4.35;;
7703;SDS011;3894;49.700;10.770;2024-01-30T06:35:16;9.88;;;3.92;;
7703;SDS011;3894;49.700;10.770;2024-01-30T06:37:42;8.77;;;4.00;;
7703;SDS011;3894;49.700;10.770;2024-01-30T06:40:08;9.43;;;3.67;;
7703;SDS011;3894;49.700;10.770;2024-01-30T06:42:34;10.63;;;3.88;;
7703;SDS011;3894;49.700;10.770;2024-01-30T06:44:59;12.27;;;5.00;;
7703;SDS011;3894;49.700;10.770;2024-01-30T06:47:25;9.35;;;3.63;;
7703;SDS011;3894;49.700;10.770;2024-01-30T06:49:50;12.07;;;4.28;;
7703;SDS011;3894;49.700;10.770;2024-01-30T06:52:16;13.63;;;4.75;;
7703;SDS011;3894;49.700;10.770;2024-01-30T06:54:41;13.73;;;4.97;;
7703;SDS011;3894;49.700;10.770;2024-01-30T06:57:07;12.55;;;4.35;;
7703;SDS011;3894;49.700;10.770;2024-01-30T06:59:36;11.57;;;5.20;;
7703;SDS011;3894;49.700;10.770;2024-01-30T07:02:02;13.95;;;4.85;;
7703;SDS011;3894;49.700;10.770;2024-01-30T07:04:29;15.20;;;5.50;;
7703;SDS011;3894;49.700;10.770;2024-01-30T07:06:56;12.07;;;6.13;;
7703;SDS011;3894;49.700;10.770;2024-01-30T07:09:22;14.95;;;6.45;;
7703;SDS011;3894;49.700;10.770;2024-01-30T07:11:48;14.43;;;5.60;;
7703;SDS011;3894;49.700;10.770;2024-01-30T07:14:13;14.00;;;5.57;;
7703;SDS011;3894;49.700;10.770;2024-01-30T07:16:39;11.73;;;5.13;;
7703;SDS011;3894;49.700;10.770;2024-01-30T07:19:04;10.80;;;5.30;;
7703;SDS011;3894;49.700;10.770;2024-01-30T07:21:30;11.43;;;4.75;;
7703;SDS011;3894;49.700;10.770;2024-01-30T07:23:55;13.02;;;5.65;;
7703;SDS011;3894;49.700;10.770;2024-01-30T07:26:21;12.25;;;4.90;;
7703;SDS011;3894;49.700;10.770;2024-01-30T07:28:47;13.05;;;5.88;;
7703;SDS011;3894;49.700;10.770;2024-01-30T07:31:12;14.38;;;5.00;;
7703;SDS011;3894;49.700;10.770;2024-01-30T07:33:38;10.27;;;4.50;;
7703;SDS011;3894;49.700;10.770;2024-01-30T07:36:03;13.13;;;4.95;;
7703;SDS011;3894;49.700;10.770;2024-01-30T07:38:32;11.50;;;4.50;;
7703;SDS011;3894;49.700;10.770;2024-01-30T07:40:58;20.25;;;7.90;;
7703;SDS011;3894;49.700;10.770;2024-01-30T07:43:24;20.67;;;8.63;;
7703;SDS011;3894;49.700;10.770;2024-01-30T07:45:49;16.00;;;7.30;;
7703;SDS011;3894;49.700;10.770;2024-01-30T07:48:15;14.20;;;5.35;;
7703;SDS011;3894;49.700;10.770;2024-01-30T07:50:40;15.77;;;5.38;;
7703;SDS011;3894;49.700;10.770;2024-01-30T07:53:06;15.45;;;5.85;;
7703;SDS011;3894;49.700;10.770;2024-01-30T07:55:32;19.15;;;6.13;;
7703;SDS011;3894;49.700;10.770;2024-01-30T07:57:57;12.82;;;5.65;;
7703;SDS011;3894;49.700;10.770;2024-01-30T08:00:24;13.45;;;4.78;;
7703;SDS011;3894;49.700;10.770;2024-01-30T08:02:49;13.20;;;5.18;;
7703;SDS011;3894;49.700;10.770;2024-01-30T08:05:15;12.00;;;5.45;;
7703;SDS011;3894;49.700;10.770;2024-01-30T08:07:41;14.57;;;6.22;;
7703;SDS011;3894;49.700;10.770;2024-01-30T08:10:11;15.13;;;5.75;;
7703;SDS011;3894;49.700;10.770;2024-01-30T08:12:38;12.05;;;5.43;;
7703;SDS011;3894;49.700;10.770;2024-01-30T08:15:03;12.02;;;5.25;;
7703;SDS011;3894;49.700;10.770;2024-01-30T08:17:29;13.30;;;5.35;;
7703;SDS011;3894;49.700;10.770;2024-01-30T08:19:55;16.30;;;7.03;;
7703;SDS011;3894;49.700;10.770;2024-01-30T08:22:20;13.88;;;6.80;;
7703;SDS011;3894;49.700;10.770;2024-01-30T08:24:46;19.27;;;7.28;;
7703;SDS011;3894;49.700;10.770;2024-01-30T08:27:12;13.85;;;6.40;;
7703;SDS011;3894;49.700;10.770;2024-01-30T08:29:37;12.45;;;5.60;;
7703;SDS011;3894;49.700;10.770;2024-01-30T08:32:04;13.27;;;5.93;;
7703;SDS011;3894;49.700;10.770;2024-01-30T08:34:30;12.75;;;5.78;;
7703;SDS011;3894;49.700;10.770;2024-01-30T08:36:56;11.80;;;5.03;;
7703;SDS011;3894;49.700;10.770;2024-01-30T08:39:22;13.63;;;5.25;;
7703;SDS011;3894;49.700;10.770;2024-01-30T08:41:47;11.55;;;4.97;;
7703;SDS011;3894;49.700;10.770;2024-01-30T08:44:13;11.93;;;5.30;;
7703;SDS011;3894;49.700;10.770;2024-01-30T08:46:38;12.02;;;5.38;;
7703;SDS011;3894;49.700;10.770;2024-01-30T08:49:04;12.63;;;5.68;;
7703;SDS011;3894;49.700;10.770;2024-01-30T08:51:30;11.07;;;5.45;;
7703;SDS011;3894;49.700;10.770;2024-01-30T08:53:55;13.18;;;5.63;;
7703;SDS011;3894;49.700;10.770;2024-01-30T08:56:21;11.82;;;5.28;;
7703;SDS011;3894;49.700;10.770;2024-01-30T08:58:47;15.05;;;5.55;;
7703;SDS011;3894;49.700;10.770;2024-01-30T09:01:12;13.57;;;5.30;;
7703;SDS011;3894;49.700;10.770;2024-01-30T09:03:39;12.88;;;5.85;;
7703;SDS011;3894;49.700;10.770;2024-01-30T09:06:09;10.88;;;5.05;;
7703;SDS011;3894;49.700;10.770;2024-01-30T09:08:35;12.10;;;5.20;;
7703;SDS011;3894;49.700;10.770;2024-01-30T09:11:01;11.20;;;5.13;;
7703;SDS011;3894;49.700;10.770;2024-01-30T09:13:27;11.60;;;6.07;;
7703;SDS011;3894;49.700;10.770;2024-01-30T09:15:53;13.15;;;5.63;;
7703;SDS011;3894;49.700;10.770;2024-01-30T09:18:18;11.77;;;5.05;;
7703;SDS011;3894;49.700;10.770;2024-01-30T09:20:44;14.40;;;5.70;;
7703;SDS011;3894;49.700;10.770;2024-01-30T09:23:12;14.30;;;6.35;;
7703;SDS011;3894;49.700;10.770;2024-01-30T09:25:38;12.82;;;5.72;;
7703;SDS011;3894;49.700;10.770;2024-01-30T09:28:04;12.82;;;5.32;;
7703;SDS011;3894;49.700;10.770;2024-01-30T09:30:30;13.65;;;5.93;;
7703;SDS011;3894;49.700;10.770;2024-01-30T09:32:57;13.05;;;5.28;;
7703;SDS011;3894;49.700;10.770;2024-01-30T09:35:22;14.40;;;6.07;;
7703;SDS011;3894;49.700;10.770;2024-01-30T09:37:48;12.43;;;6.13;;
7703;SDS011;3894;49.700;10.770;2024-01-30T09:40:14;15.38;;;5.78;;
7703;SDS011;3894;49.700;10.770;2024-01-30T09:42:43;12.90;;;5.90;;
7703;SDS011;3894;49.700;10.770;2024-01-30T09:45:14;13.85;;;5.53;;
7703;SDS011;3894;49.700;10.770;2024-01-30T09:47:40;16.02;;;6.63;;
7703;SDS011;3894;49.700;10.770;2024-01-30T09:50:13;11.77;;;5.40;;
7703;SDS011;3894;49.700;10.770;2024-01-30T09:52:39;14.57;;;5.80;;
7703;SDS011;3894;49.700;10.770;2024-01-30T09:55:06;13.30;;;6.43;;
7703;SDS011;3894;49.700;10.770;2024-01-30T09:57:32;15.98;;;6.05;;
7703;SDS011;3894;49.700;10.770;2024-01-30T09:59:59;14.82;;;6.90;;
7703;SDS011;3894;49.700;10.770;2024-01-30T10:02:25;15.10;;;6.32;;
7703;SDS011;3894;49.700;10.770;2024-01-30T10:04:51;15.55;;;6.10;;
7703;SDS011;3894;49.700;10.770;2024-01-30T10:07:17;14.52;;;6.32;;
7703;SDS011;3894;49.700;10.770;2024-01-30T10:09:44;13.98;;;5.97;;
7703;SDS011;3894;49.700;10.770;2024-01-30T10:12:10;12.68;;;5.75;;
7703;SDS011;3894;49.700;10.770;2024-01-30T10:14:39;15.75;;;6.68;;
7703;SDS011;3894;49.700;10.770;2024-01-30T10:17:07;15.13;;;7.22;;
7703;SDS011;3894;49.700;10.770;2024-01-30T10:19:34;13.73;;;6.97;;
7703;SDS011;3894;49.700;10.770;2024-01-30T10:22:00;17.73;;;6.72;;
7703;SDS011;3894;49.700;10.770;2024-01-30T10:24:26;14.55;;;6.78;;
7703;SDS011;3894;49.700;10.770;2024-01-30T10:26:53;17.58;;;7.93;;
7703;SDS011;3894;49.700;10.770;2024-01-30T10:29:18;21.35;;;8.43;;
7703;SDS011;3894;49.700;10.770;2024-01-30T10:31:44;11.75;;;6.03;;
7703;SDS011;3894;49.700;10.770;2024-01-30T10:34:10;16.58;;;8.02;;
7703;SDS011;3894;49.700;10.770;2024-01-30T10:36:39;16.80;;;8.35;;
7703;SDS011;3894;49.700;10.770;2024-01-30T10:39:25;14.48;;;6.63;;
7703;SDS011;3894;49.700;10.770;2024-01-30T10:41:54;18.05;;;7.50;;
7703;SDS011;3894;49.700;10.770;2024-01-30T10:44:24;16.13;;;7.15;;
7703;SDS011;3894;49.700;10.770;2024-01-30T10:46:56;14.63;;;7.40;;
7703;SDS011;3894;49.700;10.770;2024-01-30T10:49:25;17.38;;;8.27;;
7703;SDS011;3894;49.700;10.770;2024-01-30T10:51:51;17.85;;;7.40;;
7703;SDS011;3894;49.700;10.770;2024-01-30T10:54:18;16.67;;;6.68;;
7703;SDS011;3894;49.700;10.770;2024-01-30T10:56:45;14.68;;;6.97;;
7703;SDS011;3894;49.700;10.770;2024-01-30T10:59:11;14.68;;;7.00;;
7703;SDS011;3894;49.700;10.770;2024-01-30T11:01:38;13.65;;;6.85;;
7703;SDS011;3894;49.700;10.770;2024-01-30T11:04:04;15.63;;;6.50;;
7703;SDS011;3894;49.700;10.770;2024-01-30T11:06:30;13.50;;;7.03;;
7703;SDS011;3894;49.700;10.770;2024-01-30T11:11:50;15.82;;;7.35;;
7703;SDS011;3894;49.700;10.770;2024-01-30T11:14:22;13.32;;;6.30;;
7703;SDS011;3894;49.700;10.770;2024-01-30T11:16:49;14.82;;;7.40;;
7703;SDS011;3894;49.700;10.770;2024-01-30T11:19:15;17.33;;;7.38;;
7703;SDS011;3894;49.700;10.770;2024-01-30T11:21:49;16.98;;;7.25;;
7703;SDS011;3894;49.700;10.770;2024-01-30T11:24:18;14.43;;;7.80;;
7703;SDS011;3894;49.700;10.770;2024-01-30T11:26:46;15.13;;;6.85;;
7703;SDS011;3894;49.700;10.770;2024-01-30T11:29:29;17.90;;;7.95;;
7703;SDS011;3894;49.700;10.770;2024-01-30T11:31:55;18.05;;;7.28;;
7703;SDS011;3894;49.700;10.770;2024-01-30T11:34:22;17.35;;;7.10;;
7703;SDS011;3894;49.700;10.770;2024-01-30T11:36:51;18.50;;;8.13;;
7703;SDS011;3894;49.700;10.770;2024-01-30T11:39:25;16.38;;;8.35;;
7703;SDS011;3894;49.700;10.770;2024-01-30T11:41:53;15.43;;;7.53;;
7703;SDS011;3894;49.700;10.770;2024-01-30T11:44:19;23.50;;;12.43;;
7703;SDS011;3894;49.700;10.770;2024-01-30T11:46:46;16.60;;;9.60;;
7703;SDS011;3894;49.700;10.770;2024-01-30T11:49:17;15.52;;;7.97;;
7703;SDS011;3894;49.700;10.770;2024-01-30T11:51:43;18.92;;;10.35;;
7703;SDS011;3894;49.700;10.770;2024-01-30T11:54:10;18.85;;;9.93;;
7703;SDS011;3894;49.700;10.770;2024-01-30T11:56:36;14.68;;;7.60;;
7703;SDS011;3894;49.700;10.770;2024-01-30T11:59:04;16.88;;;7.38;;
7703;SDS011;3894;49.700;10.770;2024-01-30T12:01:30;15.82;;;7.97;;
7703;SDS011;3894;49.700;10.770;2024-01-30T12:04:00;16.55;;;8.35;;
7703;SDS011;3894;49.700;10.770;2024-01-30T12:06:26;15.50;;;7.47;;
7703;SDS011;3894;49.700;10.770;2024-01-30T12:08:56;15.02;;;7.10;;
7703;SDS011;3894;49.700;10.770;2024-01-30T12:11:23;16.00;;;7.97;;
7703;SDS011;3894;49.700;10.770;2024-01-30T12:13:49;17.27;;;7.65;;
7703;SDS011;3894;49.700;10.770;2024-01-30T12:16:25;15.55;;;8.45;;
7703;SDS011;3894;49.700;10.770;2024-01-30T12:18:58;16.88;;;7.30;;
7703;SDS011;3894;49.700;10.770;2024-01-30T12:21:26;15.40;;;7.60;;
7703;SDS011;3894;49.700;10.770;2024-01-30T12:23:52;17.77;;;8.18;;
7703;SDS011;3894;49.700;10.770;2024-01-30T12:26:18;16.35;;;7.72;;
7703;SDS011;3894;49.700;10.770;2024-01-30T12:28:49;17.60;;;7.43;;
7703;SDS011;3894;49.700;10.770;2024-01-30T12:31:16;15.20;;;7.80;;
7703;SDS011;3894;49.700;10.770;2024-01-30T12:33:41;17.23;;;7.85;;
7703;SDS011;3894;49.700;10.770;2024-01-30T12:36:08;15.25;;;7.03;;
7703;SDS011;3894;49.700;10.770;2024-01-30T12:38:34;14.98;;;7.63;;
7703;SDS011;3894;49.700;10.770;2024-01-30T12:40:59;16.65;;;7.53;;
7703;SDS011;3894;49.700;10.770;2024-01-30T12:43:25;17.95;;;8.07;;
7703;SDS011;3894;49.700;10.770;2024-01-30T12:45:52;15.68;;;8.20;;
7703;SDS011;3894;49.700;10.770;2024-01-30T12:48:18;17.35;;;6.93;;
7703;SDS011;3894;49.700;10.770;2024-01-30T12:50:43;18.45;;;7.53;;
7703;SDS011;3894;49.700;10.770;2024-01-30T12:53:10;16.58;;;6.72;;
7703;SDS011;3894;49.700;10.770;2024-01-30T12:55:37;15.93;;;7.35;;
7703;SDS011;3894;49.700;10.770;2024-01-30T12:58:03;17.15;;;7.80;;
7703;SDS011;3894;49.700;10.770;2024-01-30T13:00:29;16.48;;;7.07;;
7703;SDS011;3894;49.700;10.770;2024-01-30T13:02:54;16.95;;;6.75;;
7703;SDS011;3894;49.700;10.770;2024-01-30T13:05:20;15.98;;;7.45;;
7703;SDS011;3894;49.700;10.770;2024-01-30T13:07:46;14.63;;;7.70;;
7703;SDS011;3894;49.700;10.770;2024-01-30T13:10:11;15.65;;;7.65;;
7703;SDS011;3894;49.700;10.770;2024-01-30T13:12:37;18.77;;;8.73;;
7703;SDS011;3894;49.700;10.770;2024-01-30T13:15:03;17.40;;;7.82;;
7703;SDS011;3894;49.700;10.770;2024-01-30T13:17:30;17.63;;;8.05;;
7703;SDS011;3894;49.700;10.770;2024-01-30T13:19:56;13.38;;;7.50;;
7703;SDS011;3894;49.700;10.770;2024-01-30T13:22:22;16.13;;;7.05;;
7703;SDS011;3894;49.700;10.770;2024-01-30T13:24:49;18.42;;;7.60;;
7703;SDS011;3894;49.700;10.770;2024-01-30T13:27:14;16.73;;;7.30;;
7703;SDS011;3894;49.700;10.770;2024-01-30T13:29:40;15.82;;;8.07;;
7703;SDS011;3894;49.700;10.770;2024-01-30T13:32:06;13.45;;;6.85;;
7703;SDS011;3894;49.700;10.770;2024-01-30T13:34:31;17.42;;;7.22;;
7703;SDS011;3894;49.700;10.770;2024-01-30T13:36:57;15.73;;;7.47;;
7703;SDS011;3894;49.700;10.770;2024-01-30T13:39:23;14.82;;;6.97;;
7703;SDS011;3894;49.700;10.770;2024-01-30T13:41:49;14.68;;;7.43;;
7703;SDS011;3894;49.700;10.770;2024-01-30T13:44:15;13.90;;;7.20;;
7703;SDS011;3894;49.700;10.770;2024-01-30T13:46:42;16.20;;;7.13;;
7703;SDS011;3894;49.700;10.770;2024-01-30T13:49:08;14.55;;;7.35;;
7703;SDS011;3894;49.700;10.770;2024-01-30T13:51:33;15.32;;;7.07;;
7703;SDS011;3894;49.700;10.770;2024-01-30T13:53:59;14.30;;;6.50;;
7703;SDS011;3894;49.700;10.770;2024-01-30T13:56:24;17.65;;;7.15;;
7703;SDS011;3894;49.700;10.770;2024-01-30T13:58:52;14.95;;;7.10;;
7703;SDS011;3894;49.700;10.770;2024-01-30T14:01:18;17.95;;;7.63;;
7703;SDS011;3894;49.700;10.770;2024-01-30T14:03:44;17.00;;;6.95;;
7703;SDS011;3894;49.700;10.770;2024-01-30T14:06:10;14.57;;;7.45;;
7703;SDS011;3894;49.700;10.770;2024-01-30T14:08:37;14.00;;;7.13;;
7703;SDS011;3894;49.700;10.770;2024-01-30T14:11:02;15.93;;;7.07;;
7703;SDS011;3894;49.700;10.770;2024-01-30T14:13:28;16.15;;;7.22;;
7703;SDS011;3894;49.700;10.770;2024-01-30T14:15:55;23.52;;;8.25;;
7703;SDS011;3894;49.700;10.770;2024-01-30T14:18:21;19.55;;;8.07;;
7703;SDS011;3894;49.700;10.770;2024-01-30T14:20:47;14.40;;;7.43;;
7703;SDS011;3894;49.700;10.770;2024-01-30T14:23:13;14.07;;;7.53;;
7703;SDS011;3894;49.700;10.770;2024-01-30T14:25:38;13.43;;;6.60;;
7703;SDS011;3894;49.700;10.770;2024-01-30T14:28:04;16.73;;;7.82;;
7703;SDS011;3894;49.700;10.770;2024-01-30T14:30:30;14.85;;;6.85;;
7703;SDS011;3894;49.700;10.770;2024-01-30T14:32:55;14.98;;;6.78;;
7703;SDS011;3894;49.700;10.770;2024-01-30T14:35:21;13.85;;;7.00;;
7703;SDS011;3894;49.700;10.770;2024-01-30T14:37:47;15.63;;;6.53;;
7703;SDS011;3894;49.700;10.770;2024-01-30T14:40:13;13.00;;;7.20;;
7703;SDS011;3894;49.700;10.770;2024-01-30T14:42:38;16.25;;;7.57;;
7703;SDS011;3894;49.700;10.770;2024-01-30T14:45:05;16.02;;;8.73;;
7703;SDS011;3894;49.700;10.770;2024-01-30T14:47:31;15.10;;;7.60;;
7703;SDS011;3894;49.700;10.770;2024-01-30T14:49:57;14.82;;;7.80;;